Layland, Ohio
Current Conditions -  °F | °C
As of 11:16 PM on Wednesday 17 Dec 2014 (Local Time) from K4I3 Reporting Station
Broken Clouds Broken Clouds  
Wind Chill: 17°   Ceiling: 2300
Heat Index: 27°   Visibility: 10mi
Dew Point: 21°   Wind: 9mph
Humidity: 80%   Direction: 270°W
Pressure: 30.18"   Gusts: NA
Location:  40.4765°N, 82.0295°W
Report Text: K4I3 180416Z AUTO 27008KT 10SM BKN023 M03/M06 A3018 RMK AO2
Loading
Personal Weather Stations






























Interactive Weather Map New forecast layout! Learn more

10-Day Weather Forecast

Advertisements
Track Severe Weather on mobile